Time;durP1;ratioP1;P1;durP2;ratioP2;P2;SDS_P1;SDS_P2;PMS_P1;PMS_P2;Temp;Humidity;BMP_temperature;BMP_pressure;BME280_temperature;BME280_humidity;BME280_pressure;Samples;Min_cycle;Max_cycle;Signal;HPM_P1;HPM_P2
2022/07/16 00:03:23;;;;;;;4.43;2.72;;;16.80;99.90;;;;;;5014530;28;20052;-77
2022/07/16 00:05:49;;;;;;;5.38;2.70;;;16.50;99.90;;;;;;5015501;28;20049;-77
2022/07/16 00:08:14;;;;;;;5.00;3.17;;;18.00;99.90;;;;;;4998470;28;20046;-77
2022/07/16 00:10:40;;;;;;;7.50;3.05;;;17.00;99.90;;;;;;4997890;28;20593;-76
2022/07/16 00:13:05;;;;;;;3.85;2.50;;;16.80;99.90;;;;;;5014055;28;20403;-78
2022/07/16 00:15:31;;;;;;;3.65;2.75;;;16.90;99.90;;;;;;5014065;28;20140;-77
2022/07/16 00:20:41;;;;;;;5.00;2.47;;;17.20;99.90;;;;;;5014280;28;20046;-77
2022/07/16 00:23:07;;;;;;;5.30;2.35;;;17.00;99.90;;;;;;5015143;28;20042;-77
2022/07/16 00:25:34;;;;;;;5.35;3.10;;;17.00;99.90;;;;;;5015344;28;20202;-77
2022/07/16 00:28:00;;;;;;;5.32;2.97;;;17.10;99.90;;;;;;5014007;28;20049;-77
2022/07/16 00:30:26;;;;;;;5.80;2.90;;;17.00;99.90;;;;;;4997458;28;20042;-75
2022/07/16 00:32:52;;;;;;;4.95;2.78;;;17.00;99.90;;;;;;5015189;28;20030;-77
2022/07/16 00:35:18;;;;;;;4.43;2.95;;;17.10;99.90;;;;;;5013539;28;20125;-77
2022/07/16 00:37:43;;;;;;;5.05;3.30;;;17.00;99.90;;;;;;5013625;28;20044;-77
2022/07/16 00:40:09;;;;;;;6.38;3.70;;;17.10;99.90;;;;;;5015201;28;20491;-77
2022/07/16 00:42:35;;;;;;;7.03;4.28;;;16.80;99.90;;;;;;5014747;28;20037;-77
2022/07/16 00:45:00;;;;;;;7.30;4.57;;;16.60;99.90;;;;;;5013259;28;20042;-77
2022/07/16 00:47:26;;;;;;;7.13;3.60;;;16.50;99.90;;;;;;5015014;28;20048;-78
2022/07/16 00:49:51;;;;;;;7.57;3.42;;;16.40;99.90;;;;;;5016941;28;20475;-78
2022/07/16 00:52:17;;;;;;;5.35;4.00;;;16.50;99.90;;;;;;4998863;28;20042;-77
2022/07/16 00:54:43;;;;;;;5.97;3.55;;;16.40;99.90;;;;;;5014041;28;20045;-78
2022/07/16 00:57:08;;;;;;;6.88;5.20;;;16.50;99.90;;;;;;5013751;28;20053;-78
2022/07/16 00:59:34;;;;;;;6.13;3.97;;;16.20;99.90;;;;;;4997058;28;20065;-77
2022/07/16 01:01:59;;;;;;;5.53;2.83;;;17.30;99.90;;;;;;5014723;28;20115;-77
2022/07/16 01:04:25;;;;;;;3.47;2.35;;;16.50;99.90;;;;;;5012891;28;20038;-78
2022/07/16 01:06:51;;;;;;;5.25;2.90;;;16.30;99.90;;;;;;4996794;28;20042;-77
2022/07/16 01:09:17;;;;;;;7.25;3.17;;;16.50;99.90;;;;;;5013149;28;20042;-77
2022/07/16 01:11:44;;;;;;;5.10;2.65;;;16.20;99.90;;;;;;5013206;28;20160;-78
2022/07/16 01:14:10;;;;;;;8.60;2.50;;;16.20;99.90;;;;;;5012123;28;20115;-77
2022/07/16 01:16:36;;;;;;;8.02;3.47;;;16.40;99.90;;;;;;5013151;28;20038;-78
2022/07/16 01:19:02;;;;;;;6.55;2.88;;;16.30;99.90;;;;;;5014738;28;20419;-78
2022/07/16 01:21:28;;;;;;;5.85;2.80;;;18.00;99.90;;;;;;5014692;28;20091;-77
2022/07/16 01:23:53;;;;;;;14.45;4.18;;;16.30;99.90;;;;;;5013251;28;20101;-77
2022/07/16 01:26:19;;;;;;;7.95;2.95;;;16.20;99.90;;;;;;5014024;28;20049;-78
2022/07/16 01:28:45;;;;;;;8.68;4.20;;;16.50;99.90;;;;;;5015384;28;20042;-78
2022/07/16 01:31:11;;;;;;;5.13;3.10;;;16.10;99.90;;;;;;5014567;28;20042;-78
2022/07/16 01:33:39;;;;;;;7.00;3.03;;;16.10;99.90;;;;;;5015392;28;20506;-78
2022/07/16 01:36:06;;;;;;;9.82;3.40;;;16.40;99.90;;;;;;5014610;28;20049;-78
2022/07/16 01:38:33;;;;;;;6.57;3.08;;;16.10;99.90;;;;;;5013651;28;20052;-79
2022/07/16 01:40:59;;;;;;;5.63;2.67;;;16.20;99.90;;;;;;4997627;28;20056;-78
2022/07/16 01:43:26;;;;;;;10.07;4.25;;;16.30;99.90;;;;;;5014462;28;20038;-78
2022/07/16 01:45:53;;;;;;;6.07;3.20;;;16.10;99.90;;;;;;5013038;28;20125;-78
2022/07/16 01:48:19;;;;;;;7.03;2.65;;;16.40;99.90;;;;;;5014677;28;20500;-78
2022/07/16 01:50:45;;;;;;;7.57;3.15;;;16.00;99.90;;;;;;5013348;28;20037;-79
2022/07/16 01:53:12;;;;;;;6.88;2.33;;;16.20;99.90;;;;;;5013531;28;20495;-78
2022/07/16 01:55:38;;;;;;;7.78;2.55;;;16.10;99.90;;;;;;5013971;28;20030;-78
2022/07/16 01:58:05;;;;;;;6.78;2.15;;;16.20;99.90;;;;;;5013296;28;20038;-78
2022/07/16 02:00:31;;;;;;;7.00;2.88;;;15.90;99.90;;;;;;5013685;28;20049;-78
2022/07/16 02:02:58;;;;;;;4.75;2.72;;;16.20;99.90;;;;;;4997528;28;20041;-79
2022/07/16 02:05:24;;;;;;;6.68;2.70;;;16.10;99.90;;;;;;5014801;28;20088;-78
2022/07/16 02:07:49;;;;;;;6.25;3.35;;;16.10;99.90;;;;;;5015358;28;20399;-78
2022/07/16 02:10:15;;;;;;;5.60;3.05;;;16.10;99.90;;;;;;5015106;28;20038;-78
2022/07/16 02:12:41;;;;;;;5.57;3.17;;;16.10;99.90;;;;;;5014925;28;20038;-79
2022/07/16 02:15:08;;;;;;;11.27;3.10;;;15.80;99.90;;;;;;4997405;28;20084;-78
2022/07/16 02:17:34;;;;;;;5.20;2.10;;;16.10;99.90;;;;;;5014658;28;20115;-78
2022/07/16 02:20:01;;;;;;;5.70;2.72;;;16.20;99.90;;;;;;4998515;28;20038;-78
2022/07/16 02:22:28;;;;;;;5.05;2.78;;;15.90;99.90;;;;;;5016870;28;20082;-78
2022/07/16 02:24:53;;;;;;;7.53;3.05;;;15.90;99.90;;;;;;5015837;28;20060;-78
2022/07/16 02:27:19;;;;;;;7.75;2.90;;;;;;;;;;5024521;28;20069;-78
2022/07/16 02:29:45;;;;;;;4.82;2.47;;;15.80;99.90;;;;;;5023505;28;20049;-78
2022/07/16 02:32:11;;;;;;;5.43;2.28;;;15.80;99.90;;;;;;5025201;28;20065;-78
2022/07/16 02:34:36;;;;;;;8.02;2.47;;;15.90;99.90;;;;;;5025634;28;20076;-78
2022/07/16 02:37:02;;;;;;;7.47;3.50;;;15.90;99.90;;;;;;5018219;28;20042;-78
2022/07/16 02:39:27;;;;;;;7.22;3.42;;;16.00;99.90;;;;;;5013550;28;20061;-78
2022/07/16 02:41:53;;;;;;;6.63;3.83;;;15.70;99.90;;;;;;5014339;28;20049;-78
2022/07/16 02:44:18;;;;;;;9.05;4.35;;;16.30;99.90;;;;;;5065167;22;20041;-69
2022/07/16 02:46:44;;;;;;;10.27;3.45;;;15.80;99.90;;;;;;5051794;28;20072;-68
2022/07/16 02:49:10;;;;;;;7.75;3.50;;;15.70;99.90;;;;;;5033824;28;20048;-68
2022/07/16 02:51:35;;;;;;;6.63;3.58;;;15.90;99.90;;;;;;5033905;28;20506;-68
2022/07/16 02:54:02;;;;;;;7.55;3.67;;;15.70;99.90;;;;;;5033881;28;20709;-68
2022/07/16 02:56:27;;;;;;;8.80;3.90;;;15.80;99.90;;;;;;5034031;28;20406;-68
2022/07/16 02:58:53;;;;;;;7.57;4.10;;;15.60;99.90;;;;;;5033917;28;20041;-70
2022/07/16 03:01:19;;;;;;;6.22;3.47;;;15.70;99.90;;;;;;5051457;28;20049;-68
2022/07/16 03:03:44;;;;;;;11.30;4.07;;;15.80;99.90;;;;;;5049966;28;20040;-68
2022/07/16 03:06:10;;;;;;;7.60;3.38;;;16.30;99.90;;;;;;5051574;28;20111;-68
2022/07/16 03:08:35;;;;;;;6.82;3.35;;;15.50;99.90;;;;;;5033850;28;20069;-68
2022/07/16 03:11:01;;;;;;;10.45;4.28;;;15.50;99.90;;;;;;5051642;28;20041;-68
2022/07/16 03:13:27;;;;;;;6.78;3.65;;;15.40;99.90;;;;;;5051655;28;20116;-68
2022/07/16 03:15:53;;;;;;;7.70;3.30;;;15.40;99.90;;;;;;5033586;28;20120;-68
2022/07/16 03:18:21;;;;;;;5.20;2.67;;;15.50;99.90;;;;;;5051306;28;20056;-68
2022/07/16 03:20:47;;;;;;;4.32;2.30;;;15.30;99.90;;;;;;5033512;28;20040;-69
2022/07/16 03:23:12;;;;;;;8.27;2.65;;;15.30;99.90;;;;;;5051444;28;20049;-68
2022/07/16 03:25:38;;;;;;;6.38;2.38;;;15.40;99.90;;;;;;5033487;28;20045;-67
2022/07/16 03:28:04;;;;;;;7.60;1.90;;;15.30;99.90;;;;;;5051288;28;20518;-68
2022/07/16 03:30:29;;;;;;;5.18;2.40;;;15.30;99.90;;;;;;5033389;28;20394;-69
2022/07/16 03:32:57;;;;;;;4.57;2.05;;;15.50;99.90;;;;;;5033137;28;20028;-69
2022/07/16 03:35:23;;;;;;;5.20;2.10;;;16.00;99.90;;;;;;5051279;28;20040;-68
2022/07/16 03:40:33;;;;;;;9.45;3.05;;;15.60;99.90;;;;;;5037459;28;20044;-68
2022/07/16 03:42:59;;;;;;;7.47;2.65;;;15.30;99.90;;;;;;5020689;28;20084;-68
2022/07/16 03:45:25;;;;;;;6.55;2.25;;;15.20;99.90;;;;;;5055287;28;20069;-68
2022/07/16 03:47:51;;;;;;;5.75;3.10;;;15.00;99.90;;;;;;5055294;28;20041;-68
2022/07/16 03:50:17;;;;;;;6.43;3.42;;;15.10;99.90;;;;;;5055291;28;20033;-68
2022/07/16 03:52:43;;;;;;;9.15;2.38;;;15.00;99.90;;;;;;5037114;28;20414;-68
2022/07/16 03:55:09;;;;;;;7.45;2.25;;;15.00;99.90;;;;;;5020421;28;20033;-69
2022/07/16 03:57:34;;;;;;;5.82;2.38;;;15.10;99.90;;;;;;5054924;28;20040;-69
2022/07/16 04:00:00;;;;;;;7.38;3.35;;;15.40;99.90;;;;;;5053683;28;20045;-68
2022/07/16 04:02:25;;;;;;;5.47;1.88;;;16.50;99.90;;;;;;5036896;28;20059;-68
2022/07/16 04:04:51;;;;;;;5.65;2.03;;;15.00;99.90;;;;;;5054516;28;20434;-68
2022/07/16 04:07:17;;;;;;;6.72;1.58;;;15.10;99.90;;;;;;5036994;28;20037;-68
2022/07/16 04:09:42;;;;;;;5.68;2.00;;;15.20;99.90;;;;;;5036840;28;20525;-68
2022/07/16 04:12:08;;;;;;;8.57;1.88;;;15.10;99.90;;;;;;5054739;28;20506;-68
2022/07/16 04:14:33;;;;;;;5.57;1.80;;;15.00;99.90;;;;;;5036443;28;20072;-68
2022/07/16 04:16:59;;;;;;;5.55;1.50;;;15.20;99.90;;;;;;5054904;28;20035;-68
2022/07/16 04:19:24;;;;;;;5.25;1.48;;;15.10;99.90;;;;;;5054833;28;20047;-68
2022/07/16 04:21:50;;;;;;;5.28;1.70;;;16.80;99.90;;;;;;5054786;28;20043;-69
2022/07/16 04:24:15;;;;;;;8.63;1.75;;;15.00;99.90;;;;;;5036322;28;20539;-70
2022/07/16 04:26:41;;;;;;;8.48;1.90;;;15.80;99.90;;;;;;5036654;28;20045;-69
2022/07/16 04:29:07;;;;;;;10.32;1.95;;;15.10;99.90;;;;;;5036464;28;20409;-68
2022/07/16 04:31:32;;;;;;;7.95;2.33;;;15.00;99.90;;;;;;5054629;28;20033;-68
2022/07/16 04:33:58;;;;;;;6.30;2.00;;;14.90;99.90;;;;;;5036327;28;20087;-68
2022/07/16 04:36:23;;;;;;;7.18;2.00;;;14.90;99.90;;;;;;5036439;28;20508;-68
2022/07/16 04:38:49;;;;;;;11.13;2.20;;;14.90;99.90;;;;;;5036607;28;20070;-69
2022/07/16 04:41:14;;;;;;;7.15;1.58;;;14.80;99.90;;;;;;5036649;28;20041;-70
2022/07/16 04:43:40;;;;;;;5.63;2.03;;;15.70;99.90;;;;;;5053934;28;20080;-69
2022/07/16 04:46:05;;;;;;;7.32;1.65;;;15.30;99.90;;;;;;5036089;28;20045;-68
2022/07/16 04:48:31;;;;;;;7.38;1.73;;;;;;;;;;5035205;28;20044;-69
2022/07/16 04:50:57;;;;;;;7.70;1.70;;;15.30;99.90;;;;;;5054091;28;20541;-70
2022/07/16 04:53:22;;;;;;;6.03;1.67;;;16.30;99.90;;;;;;5036039;28;20068;-69
2022/07/16 04:55:48;;;;;;;10.88;2.30;;;15.40;99.90;;;;;;5035608;28;20065;-69
2022/07/16 04:58:14;;;;;;;10.50;2.50;;;15.30;99.90;;;;;;5053766;28;20422;-69
2022/07/16 05:00:40;;;;;;;7.20;3.20;;;15.60;99.90;;;;;;5052759;28;20490;-69
2022/07/16 05:03:06;;;;;;;4.93;2.00;;;15.30;99.90;;;;;;5053898;28;20093;-70
2022/07/16 05:05:36;;;;;;;5.72;2.40;;;15.50;99.90;;;;;;5035787;28;20040;-69
2022/07/16 05:08:03;;;;;;;5.80;2.47;;;17.10;99.90;;;;;;5019619;28;20410;-69
2022/07/16 05:10:29;;;;;;;6.00;2.03;;;15.50;99.90;;;;;;5035929;28;20037;-68
2022/07/16 05:12:56;;;;;;;6.68;1.67;;;15.50;99.90;;;;;;5035758;28;20086;-69
2022/07/16 05:15:21;;;;;;;5.65;2.40;;;15.80;99.90;;;;;;5019174;28;20538;-68
2022/07/16 05:17:48;;;;;;;7.38;2.30;;;15.50;99.90;;;;;;5052268;28;20072;-69
2022/07/16 05:20:14;;;;;;;10.65;2.38;;;16.20;99.90;;;;;;5053523;28;20033;-69
2022/07/16 05:22:40;;;;;;;8.50;2.08;;;15.70;99.90;;;;;;5018992;28;20077;-69
2022/07/16 05:25:07;;;;;;;7.55;2.20;;;15.70;99.90;;;;;;5035227;28;20494;-69
2022/07/16 05:27:33;;;;;;;4.15;2.45;;;15.60;99.90;;;;;;5035606;28;20084;-69
2022/07/16 05:29:59;;;;;;;8.10;2.80;;;16.40;99.90;;;;;;5035672;28;20443;-70
2022/07/16 05:32:25;;;;;;;6.57;2.47;;;16.00;99.90;;;;;;5043213;28;20119;-69
2022/07/16 05:34:51;;;;;;;7.00;1.73;;;15.60;99.90;;;;;;5063481;28;20056;-69
2022/07/16 05:37:16;;;;;;;11.30;3.38;;;17.00;99.90;;;;;;5045074;28;20029;-69
2022/07/16 05:39:42;;;;;;;6.60;1.90;;;15.90;99.90;;;;;;5044136;28;20382;-69
2022/07/16 05:42:07;;;;;;;5.13;2.15;;;17.20;99.90;;;;;;5043365;28;20037;-69
2022/07/16 05:44:33;;;;;;;14.05;2.15;;;16.80;99.90;;;;;;5018233;28;20072;-68
2022/07/16 05:46:59;;;;;;;7.00;2.33;;;;;;;;;;5035205;28;20351;-69
2022/07/16 05:49:25;;;;;;;7.85;2.47;;;15.80;99.90;;;;;;5034987;28;20049;-69
2022/07/16 05:51:50;;;;;;;4.30;1.40;;;16.90;99.90;;;;;;5052796;28;20033;-69
2022/07/16 05:54:16;;;;;;;5.05;2.20;;;15.70;99.90;;;;;;5034719;28;20037;-69
2022/07/16 05:56:41;;;;;;;4.68;1.60;;;16.00;99.90;;;;;;5053296;28;20040;-69
2022/07/16 05:59:07;;;;;;;6.57;1.90;;;15.90;99.90;;;;;;5018455;28;20080;-69
2022/07/16 06:01:33;;;;;;;4.35;2.17;;;16.00;99.90;;;;;;5047762;28;20053;-70
2022/07/16 06:03:58;;;;;;;7.15;1.65;;;16.10;99.90;;;;;;5054586;28;20051;-69
2022/07/16 06:06:24;;;;;;;6.45;2.42;;;16.00;99.90;;;;;;5073248;28;20047;-69
2022/07/16 06:08:50;;;;;;;5.82;2.80;;;16.10;99.90;;;;;;5042814;28;20540;-69
2022/07/16 06:11:15;;;;;;;10.10;1.52;;;16.50;99.90;;;;;;5054443;28;20047;-70
2022/07/16 06:13:41;;;;;;;7.05;2.00;;;16.00;99.90;;;;;;5054566;28;20152;-69
2022/07/16 06:16:07;;;;;;;6.25;1.08;;;17.20;99.90;;;;;;5054580;28;20024;-69
2022/07/16 06:18:36;;;;;;;6.32;1.63;;;16.10;99.90;;;;;;5037958;28;20071;-70
2022/07/16 06:21:02;;;;;;;6.15;1.38;;;16.00;99.90;;;;;;5072256;28;20055;-70
2022/07/16 06:23:28;;;;;;;4.35;0.88;;;16.10;99.90;;;;;;5072092;28;20040;-71
2022/07/16 06:25:53;;;;;;;7.60;1.45;;;16.20;99.90;;;;;;5054331;28;20198;-69
2022/07/16 06:28:19;;;;;;;5.93;1.40;;;16.10;99.90;;;;;;5054416;28;20037;-70
2022/07/16 06:30:45;;;;;;;7.93;1.42;;;16.40;99.90;;;;;;5054049;28;20033;-69
2022/07/16 06:33:10;;;;;;;6.65;1.20;;;16.60;99.90;;;;;;5072141;28;20064;-70
2022/07/16 06:35:36;;;;;;;4.28;0.98;;;17.30;99.90;;;;;;5037317;28;20059;-69
2022/07/16 06:38:03;;;;;;;10.02;1.23;;;17.00;99.90;;;;;;5053825;28;20134;-68
2022/07/16 06:40:29;;;;;;;9.18;1.40;;;16.80;99.90;;;;;;5037443;28;20048;-68
2022/07/16 06:42:54;;;;;;;8.48;1.10;;;17.20;99.90;;;;;;5053954;28;20128;-69
2022/07/16 06:45:23;;;;;;;5.80;1.33;;;18.40;99.90;;;;;;5054137;28;20127;-69
2022/07/16 06:47:49;;;;;;;6.47;1.77;;;17.50;99.90;;;;;;5043762;28;20045;-69
2022/07/16 06:50:14;;;;;;;5.95;1.45;;;17.90;99.90;;;;;;5033854;28;20521;-69
2022/07/16 06:52:40;;;;;;;4.15;0.95;;;17.50;99.90;;;;;;5047789;28;20045;-69
2022/07/16 06:55:06;;;;;;;6.95;1.70;;;17.90;99.90;;;;;;5029917;28;20796;-69
2022/07/16 06:57:32;;;;;;;3.92;1.00;;;17.10;99.90;;;;;;5030186;28;20391;-69
2022/07/16 06:59:58;;;;;;;4.47;1.25;;;18.40;99.90;;;;;;5030182;28;20139;-69
2022/07/16 07:02:24;;;;;;;3.85;0.73;;;16.70;99.90;;;;;;5046206;28;20041;-69
2022/07/16 07:04:49;;;;;;;2.70;0.70;;;17.40;99.90;;;;;;5029735;28;20033;-69
2022/07/16 07:07:15;;;;;;;3.83;0.90;;;17.10;99.90;;;;;;5048000;28;20033;-69
2022/07/16 07:09:41;;;;;;;2.00;0.60;;;17.20;99.90;;;;;;5029971;28;20052;-69
2022/07/16 07:12:06;;;;;;;2.28;0.50;;;18.00;99.90;;;;;;5050762;28;20112;-70
2022/07/16 07:14:32;;;;;;;5.13;0.93;;;17.40;99.90;;;;;;5032520;28;20041;-70
2022/07/16 07:16:58;;;;;;;1.27;0.60;;;17.20;99.90;;;;;;5038207;28;20033;-69
2022/07/16 07:19:23;;;;;;;4.43;1.20;;;17.40;99.90;;;;;;5026611;28;20041;-69
2022/07/16 07:21:49;;;;;;;3.25;0.90;;;17.80;99.90;;;;;;5059822;28;20040;-69
2022/07/16 07:24:14;;;;;;;4.93;0.80;;;17.70;99.90;;;;;;5027390;28;20398;-68
2022/07/16 07:26:40;;;;;;;3.03;0.90;;;17.90;99.90;;;;;;5051618;28;20122;-70
2022/07/16 07:29:06;;;;;;;5.57;1.10;;;18.90;99.90;;;;;;5033435;28;20069;-69
2022/07/16 07:31:32;;;;;;;7.05;2.58;;;17.90;99.90;;;;;;5051269;28;20076;-69
2022/07/16 07:33:57;;;;;;;3.38;0.70;;;18.10;99.90;;;;;;5033204;28;20120;-69
2022/07/16 07:36:23;;;;;;;2.60;0.50;;;19.30;99.90;;;;;;5033474;28;20064;-69
2022/07/16 07:38:48;;;;;;;4.85;0.95;;;18.20;99.90;;;;;;5017087;28;20487;-69
2022/07/16 07:41:14;;;;;;;2.08;0.80;;;19.30;99.70;;;;;;5033409;28;20072;-69
2022/07/16 07:43:40;;;;;;;4.80;0.88;;;18.50;99.70;;;;;;5051395;28;20044;-69
2022/07/16 07:46:06;;;;;;;2.92;0.85;;;18.80;99.60;;;;;;5033826;28;20094;-69
2022/07/16 07:48:33;;;;;;;4.22;1.00;;;17.90;99.90;;;;;;5051360;28;20116;-69
2022/07/16 07:50:58;;;;;;;3.83;0.77;;;18.40;99.50;;;;;;5033624;28;20459;-70
2022/07/16 07:53:24;;;;;;;4.22;0.70;;;18.50;99.70;;;;;;5033552;28;20119;-69
2022/07/16 07:55:50;;;;;;;2.65;0.80;;;18.80;99.40;;;;;;5033016;28;20039;-69
2022/07/16 07:58:15;;;;;;;3.28;0.80;;;19.70;99.40;;;;;;5051115;28;20037;-69
2022/07/16 08:00:42;;;;;;;3.08;0.75;;;18.60;99.30;;;;;;5050942;28;20037;-70
2022/07/16 08:03:09;;;;;;;3.22;0.80;;;18.90;99.00;;;;;;5033429;28;20045;-70
2022/07/16 08:05:34;;;;;;;2.13;0.77;;;18.50;99.50;;;;;;5032903;28;20045;-70
2022/07/16 08:08:00;;;;;;;3.42;0.68;;;18.90;99.50;;;;;;5051149;28;20514;-70
2022/07/16 08:10:25;;;;;;;3.92;0.80;;;18.30;99.90;;;;;;5051063;28;20426;-70
2022/07/16 08:12:51;;;;;;;7.65;1.02;;;18.20;99.90;;;;;;5016823;28;20040;-69
2022/07/16 08:15:17;;;;;;;8.55;0.95;;;19.30;99.90;;;;;;5032706;28;20037;-69
2022/07/16 08:17:42;;;;;;;5.28;0.93;;;19.00;99.90;;;;;;5051071;28;20048;-69
2022/07/16 08:20:10;;;;;;;6.30;1.35;;;17.90;99.90;;;;;;5033093;28;20037;-70
2022/07/16 08:22:35;;;;;;;11.45;2.13;;;17.90;99.90;;;;;;5052740;28;20044;-70
2022/07/16 08:27:45;;;;;;;7.55;1.60;;;17.60;99.90;;;;;;5054607;28;20045;-70
2022/07/16 08:30:11;;;;;;;4.32;1.00;;;17.70;99.90;;;;;;5036505;28;20490;-68
2022/07/16 08:32:37;;;;;;;6.72;1.05;;;17.60;99.90;;;;;;5036586;28;20033;-68
2022/07/16 08:35:03;;;;;;;4.82;1.17;;;18.00;99.90;;;;;;5054081;28;20037;-68
2022/07/16 08:37:44;;;;;;;4.88;1.05;;;18.00;99.90;;;;;;5054159;28;20037;-69
2022/07/16 08:40:12;;;;;;;3.67;0.95;;;18.10;99.90;;;;;;5036410;28;20040;-69
2022/07/16 08:42:38;;;;;;;5.65;1.00;;;18.20;99.90;;;;;;5054170;28;20090;-69
2022/07/16 08:45:06;;;;;;;6.55;1.38;;;18.70;99.90;;;;;;5074866;22;20049;-78
2022/07/16 08:47:33;;;;;;;3.00;0.93;;;18.60;99.90;;;;;;5053898;28;20063;-78
2022/07/16 08:50:04;;;;;;;4.38;1.65;;;19.60;99.90;;;;;;5055282;28;20119;-78
2022/07/16 08:52:30;;;;;;;10.13;2.17;;;19.20;99.90;;;;;;5053632;28;20551;-78
2022/07/16 08:54:57;;;;;;;8.55;1.33;;;20.70;99.90;;;;;;5053208;28;20037;-78
2022/07/16 08:57:23;;;;;;;6.57;0.95;;;19.00;99.90;;;;;;5037463;28;20037;-78
2022/07/16 08:59:51;;;;;;;3.08;1.00;;;20.30;99.90;;;;;;5020986;28;20555;-78
2022/07/16 09:02:16;;;;;;;5.32;0.98;;;19.10;99.60;;;;;;5037837;28;20636;-79
2022/07/16 09:04:42;;;;;;;5.22;1.98;;;20.10;99.80;;;;;;5036267;28;20049;-78
2022/07/16 09:07:12;;;;;;;3.75;0.70;;;19.20;99.20;;;;;;5057108;28;20040;-78
2022/07/16 09:09:37;;;;;;;15.02;2.92;;;19.70;98.50;;;;;;5024526;28;20100;-78
2022/07/16 09:12:03;;;;;;;5.03;1.33;;;19.50;98.90;;;;;;5037367;28;20080;-78
2022/07/16 09:14:29;;;;;;;6.32;1.15;;;20.30;99.20;;;;;;5037816;28;20040;-79
2022/07/16 09:16:54;;;;;;;6.32;1.02;;;19.70;98.40;;;;;;5055986;28;20114;-78
2022/07/16 09:19:25;;;;;;;3.80;0.90;;;20.20;99.30;;;;;;5038435;28;20033;-78
2022/07/16 09:22:08;;;;;;;7.47;1.10;;;19.90;98.50;;;;;;5060259;28;20101;-79
2022/07/16 09:24:46;;;;;;;4.50;0.98;;;19.60;98.40;;;;;;5043740;28;20119;-79
2022/07/16 09:27:25;;;;;;;3.65;0.98;;;18.80;98.70;;;;;;5038532;28;20044;-79
2022/07/16 09:29:56;;;;;;;3.63;1.85;;;19.00;99.10;;;;;;5037116;28;20036;-78
2022/07/16 09:32:39;;;;;;;3.95;1.30;;;19.30;99.90;;;;;;5054035;28;20088;-78
2022/07/16 09:35:11;;;;;;;6.75;1.02;;;20.20;99.90;;;;;;5035757;28;20063;-78
2022/07/16 09:37:51;;;;;;;5.47;0.80;;;19.60;98.90;;;;;;5036718;28;20041;-78
2022/07/16 09:40:43;;;;;;;6.10;1.10;;;19.60;99.00;;;;;;5053794;28;20102;-78
2022/07/16 09:43:12;;;;;;;6.13;1.30;;;20.10;99.70;;;;;;5053804;28;20041;-78
2022/07/16 09:45:41;;;;;;;4.72;0.90;;;20.90;99.80;;;;;;5035691;28;20513;-78
2022/07/16 09:48:36;;;;;;;2.88;1.00;;;21.00;99.10;;;;;;5035553;28;20040;-78
2022/07/16 09:51:26;;;;;;;6.47;0.90;;;20.30;98.70;;;;;;5053657;28;20048;-78
2022/07/16 09:53:53;;;;;;;4.45;1.02;;;20.30;99.20;;;;;;5036054;28;20041;-78
2022/07/16 09:56:24;;;;;;;2.15;0.75;;;20.50;99.20;;;;;;5052756;28;20124;-78
2022/07/16 09:58:54;;;;;;;10.65;1.40;;;;;;;;;;5036070;28;20041;-78
2022/07/16 10:01:27;;;;;;;1.88;0.77;;;;;;;;;;5036944;28;20063;-79
2022/07/16 10:03:54;;;;;;;5.60;2.35;;;;;;;;;;5053280;28;20080;-76
2022/07/16 10:06:20;;;;;;;5.38;1.20;;;19.70;99.90;;;;;;5052722;28;20131;-79
2022/07/16 10:08:47;;;;;;;4.47;0.80;;;;;;;;;;5053894;28;20076;-79
2022/07/16 10:11:14;;;;;;;3.50;0.82;;;;;;;;;;5052778;28;20041;-79
2022/07/16 10:13:43;;;;;;;3.95;1.25;;;19.40;99.90;;;;;;5053308;28;20044;-79
2022/07/16 10:16:09;;;;;;;8.23;1.30;;;18.90;99.90;;;;;;5036515;28;20041;-79
2022/07/16 10:18:45;;;;;;;6.55;1.55;;;19.50;99.90;;;;;;5057772;28;20099;-79
2022/07/16 10:21:15;;;;;;;5.60;1.20;;;19.70;99.90;;;;;;5053517;28;20311;-79
2022/07/16 10:24:01;;;;;;;6.55;1.85;;;19.80;99.90;;;;;;5053853;28;20080;-78
2022/07/16 10:26:28;;;;;;;7.32;1.15;;;20.30;99.90;;;;;;5053530;28;20391;-78
2022/07/16 10:28:55;;;;;;;5.70;1.20;;;19.80;99.90;;;;;;5035068;28;20041;-79
2022/07/16 10:31:30;;;;;;;6.93;1.35;;;20.40;99.90;;;;;;5036672;28;20490;-78
2022/07/16 10:34:14;;;;;;;2.85;1.25;;;20.50;99.90;;;;;;5053157;28;20033;-77
2022/07/16 10:36:48;;;;;;;4.35;1.33;;;20.70;99.90;;;;;;5053513;28;20097;-78
2022/07/16 10:39:15;;;;;;;3.28;1.17;;;20.30;99.90;;;;;;5045034;28;20410;-78
2022/07/16 10:42:00;;;;;;;3.85;1.50;;;20.70;99.90;;;;;;5047823;28;20076;-77
2022/07/16 10:44:47;;;;;;;5.85;1.73;;;20.40;99.90;;;;;;5054592;28;20037;-75
2022/07/16 10:47:14;;;;;;;8.45;2.13;;;20.00;99.90;;;;;;5041978;28;20062;-75
2022/07/16 10:49:40;;;;;;;3.83;1.85;;;19.70;99.90;;;;;;5057337;28;20041;-76
2022/07/16 10:52:18;;;;;;;7.07;1.48;;;19.60;99.90;;;;;;5037155;28;20522;-77
2022/07/16 10:54:49;;;;;;;4.85;0.85;;;19.90;99.90;;;;;;5039986;28;20049;-77
2022/07/16 10:57:18;;;;;;;3.65;1.55;;;20.20;99.90;;;;;;5032211;28;20041;-77
2022/07/16 10:59:46;;;;;;;5.40;1.02;;;19.70;99.90;;;;;;5041683;28;20041;-77
2022/07/16 11:02:14;;;;;;;8.35;1.90;;;19.90;99.90;;;;;;5035544;28;20041;-77
2022/07/16 11:04:47;;;;;;;4.05;0.90;;;20.40;99.90;;;;;;5035877;28;20051;-76
2022/07/16 11:07:19;;;;;;;2.85;1.40;;;20.30;99.90;;;;;;5048916;28;20044;-77
2022/07/16 11:09:47;;;;;;;4.75;1.27;;;20.30;99.90;;;;;;5020792;28;20414;-78
2022/07/16 11:12:22;;;;;;;3.22;1.38;;;20.80;99.90;;;;;;5033757;28;20033;-78
2022/07/16 11:14:50;;;;;;;3.10;0.70;;;20.40;99.90;;;;;;5036406;28;20032;-78
2022/07/16 11:17:17;;;;;;;4.40;0.90;;;20.10;99.90;;;;;;5034458;28;20521;-78
2022/07/16 11:19:48;;;;;;;3.78;0.80;;;20.20;99.90;;;;;;5056491;28;20112;-78
2022/07/16 11:22:20;;;;;;;4.93;0.80;;;20.50;99.90;;;;;;5060398;28;20041;-78
2022/07/16 11:24:53;;;;;;;2.77;1.20;;;20.50;99.90;;;;;;5044037;28;20036;-78
2022/07/16 11:27:27;;;;;;;3.33;1.20;;;20.70;99.90;;;;;;5044729;28;20060;-77
2022/07/16 11:29:57;;;;;;;3.47;1.15;;;20.90;99.90;;;;;;5036158;28;20041;-78
2022/07/16 11:32:23;;;;;;;4.78;1.10;;;21.10;99.90;;;;;;5027625;28;20413;-78
2022/07/16 11:34:48;;;;;;;7.10;1.30;;;20.90;99.90;;;;;;5051966;28;20063;-78
2022/07/16 11:37:14;;;;;;;2.17;0.90;;;20.70;99.90;;;;;;5049075;28;20108;-79
2022/07/16 11:39:40;;;;;;;7.07;1.23;;;21.40;99.90;;;;;;5070221;28;20033;-80
2022/07/16 11:42:06;;;;;;;3.67;0.85;;;21.00;99.90;;;;;;5042498;28;20041;-78
2022/07/16 11:44:34;;;;;;;6.47;1.33;;;20.40;99.90;;;;;;5035902;28;20044;-78
2022/07/16 11:47:06;;;;;;;7.30;2.92;;;20.20;99.90;;;;;;5034181;28;20041;-78
2022/07/16 11:49:40;;;;;;;4.63;2.00;;;20.90;99.90;;;;;;5035161;28;20179;-78
2022/07/16 11:52:22;;;;;;;4.72;1.27;;;20.90;99.90;;;;;;5053032;28;20526;-79
2022/07/16 11:54:50;;;;;;;5.93;1.90;;;21.30;99.90;;;;;;5052277;28;20101;-77
2022/07/16 11:57:15;;;;;;;5.32;2.13;;;21.40;99.90;;;;;;5054818;28;20398;-78
2022/07/16 11:59:52;;;;;;;3.55;1.45;;;20.60;99.90;;;;;;5056896;28;20037;-78
2022/07/16 12:02:21;;;;;;;4.13;1.10;;;21.10;99.90;;;;;;5037873;28;20441;-78
2022/07/16 12:04:52;;;;;;;7.03;1.08;;;21.50;99.90;;;;;;5057969;28;20063;-78
2022/07/16 12:07:30;;;;;;;7.50;1.23;;;20.50;99.90;;;;;;5037202;28;20045;-77
2022/07/16 12:10:03;;;;;;;4.10;1.38;;;20.10;99.90;;;;;;5055327;28;20041;-77
2022/07/16 12:12:30;;;;;;;;;;;20.80;99.90;;;;;;5055655;28;20086;-77
2022/07/16 12:14:55;;;;;;;4.90;1.40;;;20.60;99.90;;;;;;5054947;28;19917;-78
2022/07/16 12:17:25;;;;;;;8.55;2.45;;;20.20;99.90;;;;;;5044178;28;20044;-78
2022/07/16 12:20:12;;;;;;;5.22;1.30;;;20.70;99.90;;;;;;5055022;28;20037;-78
2022/07/16 12:22:59;;;;;;;7.05;1.67;;;21.20;99.90;;;;;;5054414;28;20041;-78
2022/07/16 12:25:28;;;;;;;4.30;1.40;;;21.30;99.90;;;;;;5054843;28;20095;-78
2022/07/16 12:28:04;;;;;;;8.02;1.63;;;21.50;99.90;;;;;;5054839;28;20513;-78
2022/07/16 12:30:30;;;;;;;6.45;1.40;;;20.60;99.90;;;;;;5055082;28;20091;-77
2022/07/16 12:32:57;;;;;;;9.55;2.30;;;20.20;99.90;;;;;;5037463;28;20076;-77
2022/07/16 12:35:57;;;;;;;4.05;1.08;;;20.50;99.90;;;;;;5036425;28;20040;-76
2022/07/16 12:38:39;;;;;;;4.38;1.45;;;21.10;99.90;;;;;;5055227;28;20115;-78
2022/07/16 12:41:09;;;;;;;5.40;1.00;;;21.00;99.90;;;;;;5057687;28;20040;-78
2022/07/16 12:43:35;;;;;;;4.45;1.15;;;20.70;99.90;;;;;;5042540;28;20068;-78
2022/07/16 12:46:00;;;;;;;9.57;1.48;;;19.80;99.90;;;;;;5057199;28;20037;-78
2022/07/16 12:48:29;;;;;;;10.52;1.35;;;19.40;99.90;;;;;;5057428;28;20044;-78
2022/07/16 12:50:55;;;;;;;6.35;2.55;;;19.70;99.90;;;;;;5056944;28;20041;-78
2022/07/16 12:53:21;;;;;;;5.75;1.13;;;20.50;99.90;;;;;;5039010;28;20064;-78
2022/07/16 12:58:48;;;;;;;4.45;1.27;;;20.80;99.90;;;;;;5039304;28;20106;-78
2022/07/16 13:01:19;;;;;;;4.70;1.10;;;20.30;99.90;;;;;;5038685;28;20127;-79
2022/07/16 13:03:46;;;;;;;3.42;0.85;;;19.70;99.90;;;;;;5054297;28;20094;-79